createdAt,value
2023-11-07T00:00:46.568Z,100150.03
2023-11-07T00:03:16.136Z,100144.91
2023-11-07T00:05:46.243Z,100147.41
2023-11-07T00:08:14.966Z,100154.13
2023-11-07T00:10:45.272Z,100155.88
2023-11-07T00:13:17.214Z,100160.13
2023-11-07T00:15:47.317Z,100159.16
2023-11-07T00:18:18.261Z,100164.28
2023-11-07T00:20:47.108Z,100156.59
2023-11-07T00:23:15.601Z,100169.50
2023-11-07T00:25:45.528Z,100175.50
2023-11-07T00:28:14.484Z,100166.06
2023-11-07T00:30:44.874Z,100171.97
2023-11-07T00:33:13.663Z,100178.75
2023-11-07T00:35:45.027Z,100177.00
2023-11-07T00:38:15.620Z,100179.53
2023-11-07T00:40:50.354Z,100180.31
2023-11-07T00:43:19.520Z,100192.25
2023-11-07T00:45:51.077Z,100189.66
2023-11-07T00:48:24.831Z,100195.63
2023-11-07T00:50:53.352Z,100201.47
2023-11-07T00:53:22.564Z,100202.25
2023-11-07T00:55:52.914Z,100199.72
2023-11-07T00:58:22.403Z,100200.63
2023-11-07T01:00:56.056Z,100195.50
2023-11-07T01:03:24.901Z,100204.94
2023-11-07T01:05:57.051Z,100208.34
2023-11-07T01:08:25.418Z,100218.59
2023-11-07T01:10:57.637Z,100205.75
2023-11-07T01:13:30.082Z,100212.63
2023-11-07T01:15:59.968Z,100210.97
2023-11-07T01:18:29.146Z,100217.88
2023-11-07T01:20:58.758Z,100224.75
2023-11-07T01:23:30.149Z,100222.19
2023-11-07T01:26:04.114Z,100231.63
2023-11-07T01:28:34.252Z,100238.44
2023-11-07T01:31:04.576Z,100245.41
2023-11-07T01:33:38.280Z,100232.78
2023-11-07T01:36:10.642Z,100233.81
2023-11-07T01:38:39.787Z,100256.28
2023-11-07T01:41:15.209Z,100249.59
2023-11-07T01:43:50.286Z,100241.13
2023-11-07T01:46:19.915Z,100249.03
2023-11-07T01:48:49.824Z,100244.72
2023-11-07T01:51:19.427Z,100247.34
2023-11-07T01:53:54.137Z,100260.25
2023-11-07T01:56:27.405Z,100262.09
2023-11-07T01:59:10.583Z,100261.31
2023-11-07T02:01:47.325Z,100274.13
2023-11-07T02:04:15.711Z,100272.34
2023-11-07T02:06:53.856Z,100274.88
2023-11-07T02:09:24.035Z,100272.22
2023-11-07T02:11:56.132Z,100279.78
2023-11-07T02:14:36.825Z,100283.91
2023-11-07T02:17:06.379Z,100289.72
2023-11-07T02:19:36.044Z,100293.91
2023-11-07T02:22:09.024Z,100297.19
2023-11-07T02:24:41.471Z,100302.19
2023-11-07T02:27:12.759Z,100288.41
2023-11-07T02:29:41.610Z,100311.50
2023-11-07T02:32:11.818Z,100308.06
2023-11-07T02:34:40.962Z,100306.31
2023-11-07T02:37:11.900Z,100321.78
2023-11-07T02:39:43.263Z,100320.09
2023-11-07T02:42:13.417Z,100324.47
2023-11-07T02:44:43.603Z,100326.13
2023-11-07T02:47:14.058Z,100319.34
2023-11-07T02:49:43.035Z,100320.38
2023-11-07T02:52:14.865Z,100328.19
2023-11-07T02:54:45.801Z,100315.31
2023-11-07T02:57:14.630Z,100315.16
2023-11-07T02:59:44.232Z,100321.00
2023-11-07T03:02:12.629Z,100319.19
2023-11-07T03:04:41.174Z,100316.59
2023-11-07T03:07:10.436Z,100316.41
2023-11-07T03:09:38.798Z,100318.00
2023-11-07T03:12:11.998Z,100317.19
2023-11-07T03:14:43.186Z,100314.63
2023-11-07T03:17:11.786Z,100318.81
2023-11-07T03:19:40.332Z,100318.94
2023-11-07T03:22:11.941Z,100323.97
2023-11-07T03:24:43.746Z,100319.72
2023-11-07T03:27:13.812Z,100331.06
2023-11-07T03:29:43.864Z,100320.03
2023-11-07T03:32:13.728Z,100319.34
2023-11-07T03:34:44.082Z,100329.69
2023-11-07T03:37:13.949Z,100327.91
2023-11-07T03:39:53.043Z,100324.56
2023-11-07T03:42:27.523Z,100328.84
2023-11-07T03:44:58.727Z,100333.16
2023-11-07T03:47:31.861Z,100332.25
2023-11-07T03:50:00.572Z,100336.56
2023-11-07T03:52:29.725Z,100333.88
2023-11-07T03:54:59.938Z,100333.78
2023-11-07T03:57:36.861Z,100338.97
2023-11-07T04:00:09.167Z,100339.78
2023-11-07T04:02:37.827Z,100340.63
2023-11-07T04:05:14.279Z,100339.69
2023-11-07T04:07:42.895Z,100343.88
2023-11-07T04:10:12.805Z,100356.72
2023-11-07T04:12:42.969Z,100362.78
2023-11-07T04:15:16.195Z,100368.03
2023-11-07T04:17:48.487Z,100367.31
2023-11-07T04:20:17.902Z,100359.56
2023-11-07T04:22:49.815Z,100368.13
2023-11-07T04:25:20.956Z,100372.50
2023-11-07T04:27:53.320Z,100378.72
2023-11-07T04:30:26.579Z,100377.41
2023-11-07T04:32:56.577Z,100388.53
2023-11-07T04:35:25.438Z,100373.28
2023-11-07T04:37:57.416Z,100374.19
2023-11-07T04:40:26.744Z,100378.41
2023-11-07T04:42:58.556Z,100389.41
2023-11-07T04:45:28.248Z,100385.81
2023-11-07T04:47:59.975Z,100390.81
2023-11-07T04:50:30.144Z,100395.03
2023-11-07T04:53:05.624Z,100398.50
2023-11-07T04:55:35.137Z,100400.16
2023-11-07T04:58:08.735Z,100407.88
2023-11-07T05:00:37.128Z,100413.00
2023-11-07T05:03:08.809Z,100406.19
2023-11-07T05:05:37.462Z,100404.47
2023-11-07T05:08:09.426Z,100403.50
2023-11-07T05:10:40.068Z,100412.78
2023-11-07T05:13:10.843Z,100406.63
2023-11-07T05:15:44.028Z,100419.41
2023-11-07T05:18:14.341Z,100418.47
2023-11-07T05:20:43.564Z,100421.84
2023-11-07T05:23:14.715Z,100420.97
2023-11-07T05:25:52.227Z,100423.38
2023-11-07T05:28:22.085Z,100424.28
2023-11-07T05:30:50.724Z,100425.88
2023-11-07T05:33:19.421Z,100430.13
2023-11-07T05:35:49.334Z,100429.31
2023-11-07T05:38:17.966Z,100425.03
2023-11-07T05:40:46.634Z,100425.03
2023-11-07T05:43:18.357Z,100428.53
2023-11-07T05:45:51.205Z,100438.72
2023-11-07T05:48:25.971Z,100443.91
2023-11-07T05:50:55.771Z,100441.53
2023-11-07T05:53:24.274Z,100449.25
2023-11-07T05:55:53.797Z,100453.50
2023-11-07T05:58:22.568Z,100456.00
2023-11-07T06:00:55.933Z,100462.78
2023-11-07T06:03:24.777Z,100466.25
2023-11-07T06:05:55.951Z,100471.44
2023-11-07T06:08:25.205Z,100471.38
2023-11-07T06:10:53.808Z,100473.84
2023-11-07T06:13:22.644Z,100475.50
2023-11-07T06:15:52.653Z,100479.91
2023-11-07T06:18:26.418Z,100484.16
2023-11-07T06:20:56.433Z,100489.34
2023-11-07T06:23:25.417Z,100486.78
2023-11-07T06:25:58.703Z,100484.94
2023-11-07T06:28:30.217Z,100489.09
2023-11-07T06:31:00.053Z,100489.91
2023-11-07T06:33:30.766Z,100495.94
2023-11-07T06:36:05.464Z,100495.97
2023-11-07T06:38:35.195Z,100492.59
2023-11-07T06:41:03.923Z,100501.09
2023-11-07T06:43:35.633Z,100509.66
2023-11-07T06:46:08.031Z,100505.50
2023-11-07T06:48:36.819Z,100506.38
2023-11-07T06:51:08.679Z,100518.41
2023-11-07T06:53:37.454Z,100507.19
2023-11-07T06:56:09.443Z,100503.63
2023-11-07T06:58:38.434Z,100501.88
2023-11-07T07:01:14.807Z,100520.75
2023-11-07T07:03:43.899Z,100520.66
2023-11-07T07:06:14.104Z,100522.38
2023-11-07T07:08:43.281Z,100523.94
2023-11-07T07:11:13.652Z,100526.41
2023-11-07T07:13:44.411Z,100532.28
2023-11-07T07:16:16.097Z,100545.84
2023-11-07T07:18:46.657Z,100545.72
2023-11-07T07:21:16.842Z,100555.06
2023-11-07T07:23:48.850Z,100550.66
2023-11-07T07:26:19.971Z,100554.91
2023-11-07T07:28:55.550Z,100560.06
2023-11-07T07:31:31.668Z,100571.28
2023-11-07T07:34:15.472Z,100567.16
2023-11-07T07:36:49.312Z,100564.63
2023-11-07T07:39:30.021Z,100569.91
2023-11-07T07:42:01.842Z,100571.53
2023-11-07T07:44:42.838Z,100574.31
2023-11-07T07:47:14.299Z,100580.34
2023-11-07T07:49:42.943Z,100571.94
2023-11-07T07:52:13.989Z,100586.56
2023-11-07T07:55:01.282Z,100590.88
2023-11-07T07:57:39.487Z,100601.25
2023-11-07T08:00:14.001Z,100598.78
2023-11-07T08:02:49.703Z,100601.44
2023-11-07T08:05:19.603Z,100596.41
2023-11-07T08:07:48.714Z,100605.84
2023-11-07T08:10:23.670Z,100607.81
2023-11-07T08:12:53.525Z,100606.31
2023-11-07T08:15:21.868Z,100614.91
2023-11-07T08:17:52.709Z,100613.22
2023-11-07T08:20:21.690Z,100618.31
2023-11-07T08:22:56.732Z,100611.47
2023-11-07T08:25:27.886Z,100626.22
2023-11-07T08:27:56.457Z,100630.66
2023-11-07T08:30:29.233Z,100624.88
2023-11-07T08:33:02.283Z,100635.34
2023-11-07T08:35:32.672Z,100625.16
2023-11-07T08:38:02.027Z,100629.50
2023-11-07T08:40:33.710Z,100633.09
2023-11-07T08:43:02.069Z,100639.97
2023-11-07T08:45:39.534Z,100636.56
2023-11-07T08:48:11.984Z,100645.28
2023-11-07T08:50:42.855Z,100639.44
2023-11-07T08:53:23.970Z,100646.22
2023-11-07T08:55:56.222Z,100643.00
2023-11-07T08:58:29.724Z,100646.44
2023-11-07T09:01:02.667Z,100645.69
2023-11-07T09:03:36.674Z,100648.25
2023-11-07T09:06:09.482Z,100650.03
2023-11-07T09:08:38.182Z,100653.63
2023-11-07T09:11:14.081Z,100655.41
2023-11-07T09:13:43.276Z,100656.31
2023-11-07T09:16:11.962Z,100658.94
2023-11-07T09:18:42.880Z,100659.06
2023-11-07T09:21:12.205Z,100658.34
2023-11-07T09:23:45.901Z,100665.28
2023-11-07T09:26:14.506Z,100676.66
2023-11-07T09:28:47.450Z,100675.00
2023-11-07T09:31:17.333Z,100677.66
2023-11-07T09:33:48.486Z,100676.91
2023-11-07T09:36:18.555Z,100674.47
2023-11-07T09:38:53.316Z,100671.13
2023-11-07T09:41:22.422Z,100685.78
2023-11-07T09:43:54.063Z,100675.50
2023-11-07T09:46:25.949Z,100692.81
2023-11-07T09:48:56.814Z,100694.59
2023-11-07T09:51:30.120Z,100695.50
2023-11-07T09:54:01.297Z,100693.03
2023-11-07T09:56:33.079Z,100702.53
2023-11-07T09:59:20.411Z,100703.47
2023-11-07T10:01:52.583Z,100708.81
2023-11-07T10:04:25.837Z,100703.81
2023-11-07T10:06:57.058Z,100705.59
2023-11-07T10:09:27.854Z,100713.44
2023-11-07T10:12:09.245Z,100721.25
2023-11-07T10:14:39.685Z,100711.09
2023-11-07T10:17:09.397Z,100716.34
2023-11-07T10:19:39.583Z,100726.78
2023-11-07T10:22:10.339Z,100720.91
2023-11-07T10:24:47.722Z,100725.25
2023-11-07T10:27:17.892Z,100728.88
2023-11-07T10:29:59.397Z,100729.03
2023-11-07T10:32:47.848Z,100724.00
2023-11-07T10:35:21.703Z,100732.69
2023-11-07T10:37:50.063Z,100732.84
2023-11-07T10:40:19.148Z,100739.63
2023-11-07T10:42:51.135Z,100731.94
2023-11-07T10:45:23.232Z,100729.63
2023-11-07T10:47:52.542Z,100729.78
2023-11-07T10:50:23.039Z,100727.31
2023-11-07T10:52:54.201Z,100721.53
2023-11-07T10:55:23.271Z,100718.13
2023-11-07T10:57:59.675Z,100724.16
2023-11-07T11:00:33.961Z,100734.56
2023-11-07T11:03:07.853Z,100728.63
2023-11-07T11:08:36.004Z,100725.34
2023-11-07T11:11:14.677Z,100726.28
2023-11-07T11:13:45.631Z,100716.06
2023-11-07T11:16:16.217Z,100710.13
2023-11-07T11:18:55.162Z,100701.63
2023-11-07T11:21:36.207Z,100712.91
2023-11-07T11:24:17.573Z,100707.09
2023-11-07T11:26:51.578Z,100705.50
2023-11-07T11:29:39.645Z,100705.59
2023-11-07T11:32:26.375Z,100719.56
2023-11-07T11:35:00.434Z,100718.78
2023-11-07T11:41:12.274Z,100724.25
2023-11-07T11:44:16.511Z,100726.94
2023-11-07T11:46:54.337Z,100720.09
2023-11-07T11:49:27.294Z,100728.00
2023-11-07T11:51:57.165Z,100724.75
2023-11-07T11:54:56.543Z,100723.19
2023-11-07T11:57:28.857Z,100724.16
2023-11-07T12:00:05.266Z,100726.00
2023-11-07T12:02:44.885Z,100728.81
2023-11-07T12:05:22.920Z,100714.28
2023-11-07T12:07:51.761Z,100712.72
2023-11-07T12:45:24.297Z,100718.72
2023-11-07T12:48:07.509Z,100720.75
2023-11-07T12:50:49.879Z,100712.31
2023-11-07T12:53:42.228Z,100718.50
2023-11-07T12:56:16.583Z,100717.63
2023-11-07T12:58:48.012Z,100719.34
2023-11-07T13:01:19.727Z,100712.63
2023-11-07T13:03:50.100Z,100709.34
2023-11-07T13:06:22.024Z,100709.47
2023-11-07T13:08:52.945Z,100705.25
2023-11-07T13:11:26.104Z,100705.28
2023-11-07T13:14:13.190Z,100710.53
2023-11-07T13:16:49.928Z,100712.31
2023-11-07T13:19:24.029Z,100712.34
2023-11-07T13:21:53.191Z,100705.44
2023-11-07T13:24:24.705Z,100703.69
2023-11-07T13:26:55.404Z,100704.56
2023-11-07T13:29:26.398Z,100705.44
2023-11-07T13:32:00.609Z,100709.78
2023-11-07T13:34:40.940Z,100700.13
2023-11-07T13:37:21.529Z,100706.19
2023-11-07T13:39:51.195Z,100691.38
2023-11-07T13:42:19.862Z,100698.09
2023-11-07T13:44:51.057Z,100698.75
2023-11-07T13:47:28.218Z,100696.97
2023-11-07T13:50:04.980Z,100693.44
2023-11-07T13:52:38.048Z,100690.09
2023-11-07T13:55:13.175Z,100684.03
2023-11-07T13:57:45.146Z,100685.78
2023-11-07T14:00:32.482Z,100695.28
2023-11-07T14:03:12.985Z,100680.75
2023-11-07T14:06:26.847Z,100684.34
2023-11-07T14:09:08.483Z,100677.50
2023-11-07T14:12:16.020Z,100681.03
2023-11-07T14:14:58.209Z,100676.78
2023-11-07T14:18:13.492Z,100678.53
2023-11-07T14:21:06.972Z,100683.78
2023-11-07T14:23:38.906Z,100681.19
2023-11-07T14:26:12.471Z,100677.69
2023-11-07T14:29:08.314Z,100692.41
2023-11-07T14:32:10.327Z,100693.28
2023-11-07T14:38:31.303Z,100697.66
2023-11-07T14:41:09.369Z,100697.66
2023-11-07T14:44:04.937Z,100699.34
2023-11-07T14:46:47.953Z,100688.09
2023-11-07T14:49:27.126Z,100693.22
2023-11-07T14:52:10.719Z,100686.22
2023-11-07T14:54:46.329Z,100693.91
2023-11-07T15:00:36.642Z,100694.66
2023-11-07T15:03:13.917Z,100694.63
2023-11-07T15:05:44.565Z,100694.63
2023-11-07T15:08:21.017Z,100701.56
2023-11-07T15:11:17.348Z,100698.91
2023-11-07T15:16:39.504Z,100706.53
2023-11-07T15:19:22.551Z,100707.31
2023-11-07T15:21:58.732Z,100704.72
2023-11-07T15:24:55.378Z,100699.47
2023-11-07T15:34:27.266Z,100699.28
2023-11-07T15:37:23.933Z,100702.59
2023-11-07T15:40:44.504Z,100708.50
2023-11-07T15:43:38.535Z,100710.06
2023-11-07T15:46:23.892Z,100702.06
2023-11-07T15:49:11.031Z,100708.84
2023-11-07T15:52:16.218Z,100705.22
2023-11-07T15:54:58.260Z,100705.03
2023-11-07T16:35:48.346Z,100695.28
2023-11-07T16:38:18.653Z,100686.53
2023-11-07T16:40:50.175Z,100678.63
2023-11-07T16:43:21.161Z,100681.88
2023-11-07T16:46:03.169Z,100679.19
2023-11-07T16:48:39.018Z,100675.59
2023-11-07T16:51:11.593Z,100673.75
2023-11-07T16:53:42.345Z,100670.22
2023-11-07T16:56:20.533Z,100667.53
2023-11-07T16:59:08.336Z,100672.63
2023-11-07T17:01:37.320Z,100668.22
2023-11-07T17:04:10.659Z,100676.75
2023-11-07T17:06:41.131Z,100676.66
2023-11-07T17:09:11.054Z,100675.78
2023-11-07T17:11:50.444Z,100674.06
2023-11-07T17:14:22.680Z,100672.28
2023-11-07T17:16:53.886Z,100673.13
2023-11-07T17:19:23.355Z,100676.50
2023-11-07T17:21:56.883Z,100674.72
2023-11-07T17:24:36.119Z,100662.66
2023-11-07T17:27:21.859Z,100673.84
2023-11-07T17:30:03.808Z,100672.22
2023-11-07T17:32:36.694Z,100679.94
2023-11-07T17:35:16.166Z,100681.59
2023-11-07T17:37:49.731Z,100677.28
2023-11-07T17:40:22.544Z,100668.69
2023-11-07T17:42:54.169Z,100688.38
2023-11-07T17:45:26.281Z,100686.53
2023-11-07T17:47:59.473Z,100683.00
2023-11-07T17:50:35.650Z,100687.22
2023-11-07T17:53:10.773Z,100691.44
2023-11-07T17:55:43.774Z,100683.69
2023-11-07T17:58:18.613Z,100687.97
2023-11-07T18:00:51.228Z,100681.06
2023-11-07T18:03:21.459Z,100687.94
2023-11-07T18:06:05.156Z,100677.59
2023-11-07T18:08:38.432Z,100672.31
2023-11-07T18:11:07.014Z,100674.03
2023-11-07T18:13:41.345Z,100670.56
2023-11-07T18:16:13.505Z,100667.97
2023-11-07T18:18:58.220Z,100666.22
2023-11-07T18:21:31.744Z,100667.94
2023-11-07T18:24:06.099Z,100661.75
2023-11-07T18:26:49.014Z,100657.44
2023-11-07T18:29:29.405Z,100660.88
2023-11-07T18:32:02.699Z,100666.81
2023-11-07T18:37:31.937Z,100658.09
2023-11-07T18:42:54.751Z,100657.94
2023-11-07T18:45:35.341Z,100649.31
2023-11-07T18:48:26.531Z,100646.59
2023-11-07T18:50:56.360Z,100649.09
2023-11-07T18:53:30.907Z,100647.38
2023-11-07T18:56:17.603Z,100638.75
2023-11-07T18:58:52.315Z,100638.72
2023-11-07T19:01:45.655Z,100639.53
2023-11-07T19:04:21.343Z,100642.09
2023-11-07T19:07:22.312Z,100640.34
2023-11-07T19:10:09.688Z,100636.00
2023-11-07T19:13:01.754Z,100630.78
2023-11-07T19:15:34.597Z,100616.19
2023-11-07T19:18:05.479Z,100609.31
2023-11-07T19:20:35.768Z,100611.06
2023-11-07T19:23:09.753Z,100606.72
2023-11-07T19:25:53.232Z,100606.72
2023-11-07T19:28:26.582Z,100605.78
2023-11-07T19:31:12.527Z,100602.25
2023-11-07T19:33:42.218Z,100597.94
2023-11-07T19:36:14.753Z,100597.00
2023-11-07T19:38:49.434Z,100593.50
2023-11-07T19:41:23.316Z,100587.31
2023-11-07T19:43:58.306Z,100580.38
2023-11-07T19:46:30.645Z,100580.31
2023-11-07T19:49:02.942Z,100570.84
2023-11-07T19:51:54.712Z,100565.66
2023-11-07T19:54:23.466Z,100566.53
2023-11-07T19:56:54.481Z,100567.44
2023-11-07T19:59:24.763Z,100569.19
2023-11-07T20:05:04.271Z,100560.50
2023-11-07T20:07:50.606Z,100557.13
2023-11-07T20:10:26.599Z,100557.13
2023-11-07T20:13:05.860Z,100553.56
2023-11-07T20:15:40.468Z,100541.59
2023-11-07T20:18:09.476Z,100534.69
2023-11-07T20:20:41.957Z,100532.84
2023-11-07T20:23:13.194Z,100533.69
2023-11-07T20:25:49.121Z,100538.78
2023-11-07T20:28:20.734Z,100536.94
2023-11-07T20:30:53.716Z,100531.81
2023-11-07T20:33:34.433Z,100520.59
2023-11-07T20:36:17.967Z,100526.56
2023-11-07T20:38:46.851Z,100520.59
2023-11-07T20:41:17.996Z,100518.84
2023-11-07T20:43:47.893Z,100524.75
2023-11-07T20:46:31.040Z,100523.81
2023-11-07T20:49:10.658Z,100523.72
2023-11-07T20:51:42.310Z,100509.94
2023-11-07T20:54:16.170Z,100515.94
2023-11-07T20:56:45.671Z,100502.91
2023-11-07T20:59:23.166Z,100507.25
2023-11-07T21:02:01.944Z,100505.53
2023-11-07T21:04:31.778Z,100499.44
2023-11-07T21:07:26.773Z,100496.03
2023-11-07T21:09:59.664Z,100496.88
2023-11-07T21:12:38.082Z,100489.19
2023-11-07T21:15:14.894Z,100492.66
2023-11-07T21:20:31.670Z,100474.59
2023-11-07T21:23:00.641Z,100479.84
2023-11-07T21:25:38.783Z,100479.03
2023-11-07T21:28:07.835Z,100462.84
2023-11-07T21:30:37.659Z,100465.38
2023-11-07T21:33:22.655Z,100465.38
2023-11-07T21:36:08.303Z,100450.84
2023-11-07T21:38:42.039Z,100456.03
2023-11-07T21:41:15.073Z,100446.66
2023-11-07T21:43:57.922Z,100444.88
2023-11-07T21:46:45.552Z,100435.31
2023-11-07T21:49:18.873Z,100431.03
2023-11-07T21:51:50.248Z,100427.66
2023-11-07T21:54:18.690Z,100417.41
2023-11-07T21:59:56.643Z,100419.28
2023-11-07T22:02:26.951Z,100410.75
2023-11-07T22:07:58.399Z,100406.59
2023-11-07T22:10:26.879Z,100395.50
2023-11-07T22:12:59.537Z,100397.28
2023-11-07T22:15:47.470Z,100385.41
2023-11-07T22:18:18.404Z,100380.31
2023-11-07T22:20:50.701Z,100384.72
2023-11-07T22:23:19.837Z,100363.31
2023-11-07T22:25:48.464Z,100362.63
2023-11-07T22:28:25.103Z,100355.84
2023-11-07T22:30:53.672Z,100348.25
2023-11-07T22:33:23.502Z,100351.75
2023-11-07T22:35:54.126Z,100343.25
2023-11-07T22:38:27.770Z,100334.72
2023-11-07T22:41:14.786Z,100327.09
2023-11-07T22:43:48.028Z,100322.94
2023-11-07T22:46:22.967Z,100315.25
2023-11-07T22:48:53.550Z,100298.16
2023-11-07T22:51:23.507Z,100300.75
2023-11-07T22:53:52.569Z,100290.53
2023-11-07T22:56:28.033Z,100298.31
2023-11-07T22:58:58.743Z,100291.47
2023-11-07T23:01:31.626Z,100288.97
2023-11-07T23:04:06.316Z,100281.28
2023-11-07T23:06:40.387Z,100266.72
2023-11-07T23:09:13.944Z,100258.22
2023-11-07T23:12:09.885Z,100260.78
2023-11-07T23:14:41.486Z,100248.00
2023-11-07T23:17:15.465Z,100243.69
2023-11-07T23:19:53.071Z,100236.03
2023-11-07T23:22:23.134Z,100230.91
2023-11-07T23:24:58.996Z,100213.88
2023-11-07T23:27:28.976Z,100200.19
2023-11-07T23:29:57.939Z,100206.19
2023-11-07T23:32:29.308Z,100198.47
2023-11-07T23:35:00.113Z,100202.84
2023-11-07T23:37:34.362Z,100188.31
2023-11-07T23:40:12.283Z,100186.69
2023-11-07T23:42:43.585Z,100181.53
2023-11-07T23:45:15.973Z,100169.56
2023-11-07T23:47:47.214Z,100167.88
2023-11-07T23:50:18.628Z,100162.75
2023-11-07T23:52:56.378Z,100160.16
2023-11-07T23:55:27.318Z,100158.44
2023-11-07T23:57:57.919Z,100156.72
